Mather, California
Current Conditions -  °F | °C
As of 1:45 PM on Thursday 27 Nov 2014 (Local Time) from KMHR Reporting Station
Broken Clouds Broken Clouds  
Wind Chill: 68°   Ceiling: 15000
Heat Index: 68°   Visibility: 10mi
Dew Point: 48°   Wind: 0mph
Humidity: 49%   Direction: NA
Pressure: 30.1"   Gusts: NA
Location:  38.55°N, 121.28°W
Report Text: KMHR 272145Z 00000KT 10SM BKN150 20/09 A3010
Loading
Personal Weather Stations






























Interactive Weather Map New forecast layout! Learn more

10-Day Weather Forecast

Advertisements
Track Severe Weather on mobile